Weather at Pinchgut Lake Water Aerodrome [CLOSED]

Public forecast

Using degrees Celsius for public forecast. Weather courtesy of forecast.io.

Closest aviation weather report (METAR) to Pinchgut Lake Water Aerodrome

Report is more than 6 hours old.

Closest report is Stephenville Airport, 27.6 nm (51.1 km) SW.

2022/11/14 15:00 (retrieved 2 years ago)

CYJT 141500Z 08020G28KT 15SM BKN023 05/02 A2944 RMK SC7 PRESFR SLP974

Closest aviation forecast (TAF) to Pinchgut Lake Water Aerodrome

Forecast is more than 12 hours old.

Closest forecast is Stephenville Airport, 27.6 nm (51.1 km) SW.

2023/02/22 18:42 (retrieved 1 year ago)

TAF CYJT 221740Z 2218/2318 29012KT P6SM BKN025 TEMPO 2218/2220 BKN020 FM222000 30010G20KT P6SM BKN025 TEMPO 2220/2301 5SM -SHSN BKN020 FM230100 31015G25KT P6SM -SHSN BKN025 TEMPO 2301/2315 1 1/2SM -SHSN BLSN VV012 BECMG 2306/2308 30020G30KT FM231500 30018G28KT 3SM -SHSN BKN025 RMK NXT FCST BY 230000Z